Time;durP1;ratioP1;P1;durP2;ratioP2;P2;SDS_P1;SDS_P2;PMS_P1;PMS_P2;Temp;Humidity;BMP_temperature;BMP_pressure;BME280_temperature;BME280_humidity;BME280_pressure;Samples;Min_cycle;Max_cycle;Signal;HPM_P1;HPM_P2
2022/11/28 00:01:07;;;;;;;7.60;6.82;;;;;;;6.09;100.00;101022.97;6280854;22;20831;-76
2022/11/28 00:03:33;;;;;;;;;;;;;;;6.12;100.00;101024.06;6281931;22;20100;-75
2022/11/28 00:06:06;;;;;;;11.75;6.38;;;;;;;6.12;100.00;101016.13;6281092;22;19939;-75
2022/11/28 00:08:34;;;;;;;8.57;6.50;;;;;;;6.13;100.00;101023.66;6281348;22;20016;-75
2022/11/28 00:11:05;;;;;;;9.00;6.93;;;;;;;6.14;100.00;101019.13;6280468;22;20023;-76
2022/11/28 00:13:31;;;;;;;7.45;6.00;;;;;;;6.16;100.00;101022.13;6281225;22;20103;-75
2022/11/28 00:16:03;;;;;;;9.57;7.07;;;;;;;6.17;100.00;101007.75;6280406;22;20012;-75
2022/11/28 00:18:31;;;;;;;9.90;6.70;;;;;;;6.19;100.00;101008.09;6281396;22;20437;-75
2022/11/28 00:21:02;;;;;;;12.20;6.97;;;;;;;6.19;100.00;101003.56;6281070;22;20504;-75
2022/11/28 00:23:29;;;;;;;12.13;6.93;;;;;;;6.20;100.00;101002.41;6281409;22;20079;-76
2022/11/28 00:25:57;;;;;;;7.05;6.22;;;;;;;6.21;100.00;101014.47;6280526;22;20012;-75
2022/11/28 00:28:23;;;;;;;8.27;6.72;;;;;;;6.23;100.00;101006.13;6281512;22;20019;-75
2022/11/28 00:30:50;;;;;;;7.10;6.40;;;;;;;6.25;100.00;100998.56;6281525;22;20075;-76
2022/11/28 00:33:16;;;;;;;11.50;6.72;;;;;;;6.24;100.00;100997.81;6253902;22;20020;-76
2022/11/28 00:35:43;;;;;;;7.00;6.30;;;;;;;6.27;100.00;100991.72;6281330;22;20079;-76
2022/11/28 00:38:09;;;;;;;8.25;6.38;;;;;;;6.28;100.00;100992.47;6280904;22;20020;-75
2022/11/28 00:40:36;;;;;;;12.40;6.50;;;;;;;6.29;100.00;100989.41;6280781;22;20013;-76
2022/11/28 00:43:02;;;;;;;7.65;6.85;;;;;;;6.31;100.00;100978.44;6280511;22;20020;-76
2022/11/28 00:45:30;;;;;;;11.32;6.43;;;;;;;6.31;100.00;100984.47;6281175;22;20020;-76
2022/11/28 00:47:56;;;;;;;7.63;6.38;;;;;;;6.33;100.00;100984.81;6280621;22;20024;-76
2022/11/28 00:50:23;;;;;;;10.75;6.53;;;;;;;6.31;100.00;100987.13;6254195;22;20019;-76
2022/11/28 00:52:50;;;;;;;15.07;6.80;;;;;;;6.32;100.00;100985.22;6281039;22;20043;-76
2022/11/28 00:55:16;;;;;;;10.18;7.05;;;;;;;6.32;100.00;100977.28;6280219;22;20024;-75
2022/11/28 00:57:44;;;;;;;7.70;6.55;;;;;;;6.33;100.00;100981.44;6279966;22;20023;-75
2022/11/28 01:00:12;;;;;;;7.22;6.55;;;;;;;6.33;100.00;100976.16;6280636;22;20017;-75
2022/11/28 01:02:38;;;;;;;9.65;6.90;;;;;;;6.31;100.00;100965.97;6281156;22;20020;-75
2022/11/28 01:05:05;;;;;;;8.45;6.97;;;;;;;6.31;100.00;100968.63;6280542;22;20012;-75
2022/11/28 01:07:32;;;;;;;7.57;6.78;;;;;;;6.31;100.00;100965.97;6280879;22;20016;-75
2022/11/28 01:09:59;;;;;;;7.50;6.28;;;;;;;6.31;100.00;100958.03;6279915;22;20132;-75
2022/11/28 01:12:25;;;;;;;8.52;6.55;;;;;;;6.31;100.00;100960.69;6281155;22;20027;-75
2022/11/28 01:14:52;;;;;;;7.75;6.97;;;;;;;6.34;100.00;100962.53;6281020;22;20140;-75
2022/11/28 01:17:18;;;;;;;14.07;7.47;;;;;;;6.34;100.00;100944.00;6280568;22;20406;-75
2022/11/28 01:19:45;;;;;;;11.00;6.53;;;;;;;6.36;100.00;100948.91;6280914;22;20468;-75
2022/11/28 01:22:11;;;;;;;8.32;6.40;;;;;;;6.39;100.00;100952.63;6280584;22;20071;-75
2022/11/28 01:24:38;;;;;;;9.02;6.97;;;;;;;6.39;100.00;100948.09;6280225;22;20023;-75
2022/11/28 01:27:05;;;;;;;8.85;6.75;;;;;;;6.42;100.00;100946.50;6280854;22;20020;-75
2022/11/28 01:29:31;;;;;;;7.38;6.25;;;;;;;6.44;100.00;100944.94;6282301;22;20020;-76
2022/11/28 01:31:58;;;;;;;8.15;6.32;;;;;;;6.47;100.00;100946.03;6281827;22;20035;-75
2022/11/28 01:34:24;;;;;;;6.15;5.55;;;;;;;6.48;100.00;100945.63;6282108;22;20024;-75
2022/11/28 01:36:51;;;;;;;7.80;6.22;;;;;;;6.51;100.00;100944.06;6282339;22;20585;-76
2022/11/28 01:39:17;;;;;;;6.05;5.45;;;;;;;6.55;100.00;100942.13;6281076;22;20063;-76
2022/11/28 01:41:44;;;;;;;9.00;5.95;;;;;;;6.58;100.00;100949.25;6282111;22;20445;-76
2022/11/28 01:44:13;;;;;;;7.78;5.78;;;;;;;6.59;100.00;100954.13;6281532;22;20091;-76
2022/11/28 01:46:42;;;;;;;7.07;5.55;;;;;;;6.62;100.00;100936.69;6281866;22;20016;-76
2022/11/28 01:49:20;;;;;;;6.07;5.18;;;;;;;6.63;100.00;100952.16;6281450;22;20361;-76
2022/11/28 01:51:52;;;;;;;6.15;5.18;;;;;;;6.65;100.00;100943.81;6282035;22;20020;-76
2022/11/28 01:54:20;;;;;;;5.88;5.28;;;;;;;6.67;100.00;100946.81;6281053;22;20013;-76
2022/11/28 01:56:51;;;;;;;6.85;5.90;;;;;;;6.68;100.00;100940.38;6282168;22;20040;-75
2022/11/28 01:59:22;;;;;;;6.22;5.60;;;;;;;6.71;100.00;100939.56;6279986;22;20430;-75
2022/11/28 02:01:49;;;;;;;6.32;5.72;;;;;;;6.72;100.00;100935.75;6279854;22;20020;-76
2022/11/28 02:04:15;;;;;;;6.68;5.57;;;;;;;6.74;100.00;100930.06;6253441;22;20099;-75
2022/11/28 02:06:42;;;;;;;7.10;5.68;;;;;;;6.76;100.00;100940.97;6281918;22;20020;-76
2022/11/28 02:09:12;;;;;;;5.75;5.20;;;;;;;6.77;100.00;100935.28;6280700;22;20095;-75
2022/11/28 02:12:03;;;;;;;5.68;5.18;;;;;;;6.79;100.00;100937.53;6280262;22;20095;-75
2022/11/28 02:14:46;;;;;;;6.45;5.47;;;;;;;6.82;100.00;100931.38;6281984;22;20018;-75
2022/11/28 02:17:38;;;;;;;6.00;5.50;;;;;;;6.83;100.00;100924.94;6281554;22;20074;-75
2022/11/28 02:20:31;;;;;;;8.52;5.55;;;;;;;6.84;100.00;100916.59;6281551;22;20453;-75
2022/11/28 02:23:09;;;;;;;7.65;5.70;;;;;;;6.85;100.00;100922.63;6280873;22;20048;-76
2022/11/28 02:25:55;;;;;;;7.28;5.82;;;;;;;6.86;100.00;100924.13;6281901;22;20143;-75
2022/11/28 02:28:53;;;;;;;8.10;5.70;;;;;;;6.86;100.00;100919.59;6281902;22;20074;-76
2022/11/28 02:31:48;;;;;;;9.05;5.70;;;;;;;6.88;100.00;100922.56;6282189;22;20016;-76
2022/11/28 02:34:26;;;;;;;5.78;5.30;;;;;;;6.89;100.00;100921.41;6254626;22;20016;-76
2022/11/28 02:37:03;;;;;;;5.63;5.05;;;;;;;6.90;100.00;100919.50;6281342;22;20012;-76
2022/11/28 02:40:07;;;;;;;5.53;5.00;;;;;;;6.89;100.00;100918.00;6281344;22;20012;-75
2022/11/28 02:43:27;;;;;;;5.82;5.20;;;;;;;6.92;100.00;100922.50;6281396;22;20044;-75
2022/11/28 02:46:00;;;;;;;9.00;5.53;;;;;;;6.92;100.00;100920.59;6103453;23;20063;-76
2022/11/28 02:48:53;;;;;;;7.30;4.97;;;;;;;6.93;100.00;100919.44;6128429;23;20106;-76
2022/11/28 02:51:54;;;;;;;6.95;5.47;;;;;;;6.93;100.00;100926.63;6127467;23;20370;-76
2022/11/28 02:54:22;;;;;;;6.35;4.80;;;;;;;6.93;100.00;100922.09;6128153;23;20512;-76
2022/11/28 02:56:51;;;;;;;5.80;5.20;;;;;;;6.93;100.00;100919.44;6127794;23;20342;-76
2022/11/28 02:59:43;;;;;;;6.85;5.47;;;;;;;6.94;100.00;100925.47;6127632;23;20022;-76
2022/11/28 03:02:20;;;;;;;8.95;4.93;;;;;;;6.94;100.00;100915.63;6127483;23;20018;-75
2022/11/28 03:05:18;;;;;;;5.93;5.32;;;;;;;6.94;100.00;100918.28;6127207;23;20023;-75
2022/11/28 03:08:08;;;;;;;7.75;5.13;;;;;;;6.95;100.00;100925.06;6127504;23;20034;-75
2022/11/28 03:10:49;;;;;;;9.07;6.00;;;;;;;6.95;100.00;100927.72;6127243;23;20022;-75
2022/11/28 03:13:51;;;;;;;5.20;4.78;;;;;;;6.95;100.00;100911.09;6127380;23;20078;-75
2022/11/28 03:16:27;;;;;;;;;;;;;;;6.94;100.00;100913.00;6193099;22;20036;-76
2022/11/28 03:19:15;;;;;;;6.93;4.53;;;;;;;6.94;100.00;100918.28;6254674;22;19924;-76
2022/11/28 03:21:54;;;;;;;11.48;5.22;;;;;;;6.95;100.00;100916.38;6281333;22;20048;-75
2022/11/28 03:24:24;;;;;;;6.47;5.20;;;;;;;6.95;100.00;100914.47;6281328;22;20445;-75
2022/11/28 03:27:05;;;;;;;6.95;4.97;;;;;;;6.95;100.00;100916.38;6281463;22;20016;-76
2022/11/28 03:29:45;;;;;;;6.78;4.93;;;;;;;6.95;100.00;100917.13;6281711;22;20016;-75
2022/11/28 03:32:19;;;;;;;8.88;5.18;;;;;;;6.95;100.00;100919.03;6281570;22;20062;-75
2022/11/28 03:34:50;;;;;;;8.80;5.57;;;;;;;6.94;100.00;100920.94;6280981;22;20063;-75
2022/11/28 03:37:22;;;;;;;6.13;5.25;;;;;;;6.95;100.00;100922.41;6254041;22;20016;-75
2022/11/28 03:39:56;;;;;;;8.98;4.88;;;;;;;6.96;100.00;100918.63;6281614;22;20020;-75
2022/11/28 03:42:27;;;;;;;10.00;5.70;;;;;;;6.96;100.00;100918.63;6281283;22;20043;-77
2022/11/28 03:44:59;;;;;;;6.38;5.68;;;;;;;6.97;100.00;100914.06;6281622;22;20023;-75
2022/11/28 03:47:33;;;;;;;5.43;4.93;;;;;;;6.98;100.00;100918.97;6280927;22;20020;-75
2022/11/28 03:50:06;;;;;;;5.68;5.07;;;;;;;6.96;100.00;100910.69;6280448;22;20407;-75
2022/11/28 03:52:39;;;;;;;5.97;5.20;;;;;;;6.97;100.00;100922.00;6281578;22;20047;-75
2022/11/28 03:55:16;;;;;;;6.97;5.30;;;;;;;6.96;100.00;100923.16;6281247;22;20074;-75
2022/11/28 03:57:49;;;;;;;5.43;4.93;;;;;;;6.95;100.00;100919.78;6281387;22;20016;-76
2022/11/28 04:00:16;;;;;;;7.20;5.65;;;;;;;6.95;100.00;100922.41;6253871;22;20056;-75
2022/11/28 04:03:07;;;;;;;5.88;5.40;;;;;;;6.96;100.00;100929.22;6281365;22;20465;-76
2022/11/28 04:05:44;;;;;;;5.72;5.22;;;;;;;6.96;100.00;100934.50;6281273;22;20065;-75
2022/11/28 04:08:16;;;;;;;6.60;5.18;;;;;;;6.96;100.00;100936.41;6280855;22;20091;-75
2022/11/28 04:10:53;;;;;;;7.15;5.13;;;;;;;6.95;100.00;100925.06;6281518;22;20023;-77
2022/11/28 04:13:42;;;;;;;7.20;5.50;;;;;;;6.96;100.00;100925.81;6281036;22;20016;-77
2022/11/28 04:16:30;;;;;;;7.68;5.88;;;;;;;6.96;100.00;100931.13;6253673;22;20016;-77
2022/11/28 04:19:18;;;;;;;6.75;5.68;;;;;;;6.95;100.00;100930.38;6280338;22;20012;-78
2022/11/28 04:21:49;;;;;;;8.13;5.68;;;;;;;6.96;100.00;100929.22;6281475;22;20055;-77
2022/11/28 04:24:37;;;;;;;7.50;5.78;;;;;;;6.98;100.00;100936.75;6253648;22;20087;-77
2022/11/28 04:27:09;;;;;;;6.18;5.63;;;;;;;6.97;100.00;100943.94;6280990;22;20443;-75
2022/11/28 04:29:43;;;;;;;8.55;5.97;;;;;;;6.96;100.00;100931.84;6281847;22;20032;-78
2022/11/28 04:32:12;;;;;;;8.57;5.88;;;;;;;6.95;100.00;100933.00;6280542;22;20083;-75
2022/11/28 04:34:43;;;;;;;7.05;6.35;;;;;;;6.97;100.00;100929.97;6281379;22;20095;-78
2022/11/28 04:37:13;;;;;;;7.82;5.57;;;;;;;6.96;100.00;100923.16;6280793;22;20095;-76
2022/11/28 04:39:44;;;;;;;6.95;6.03;;;;;;;6.96;100.00;100929.22;6281151;22;20087;-76
2022/11/28 04:42:15;;;;;;;7.28;6.57;;;;;;;6.97;100.00;100932.59;6280297;22;20062;-75
2022/11/28 04:44:53;;;;;;;10.25;6.47;;;;;;;6.97;100.00;100928.06;6281537;22;20044;-76
2022/11/28 04:47:21;;;;;;;8.40;5.93;;;;;;;6.97;100.00;100927.31;6280433;22;20470;-76
2022/11/28 04:49:48;;;;;;;10.27;5.95;;;;;;;6.96;100.00;100933.75;6253997;22;20019;-76
2022/11/28 04:52:28;;;;;;;6.60;6.00;;;;;;;6.98;100.00;100931.44;6280900;22;20016;-76
2022/11/28 04:55:10;;;;;;;7.43;6.40;;;;;;;6.98;100.00;100937.50;6281108;22;20017;-76
2022/11/28 04:57:41;;;;;;;9.77;6.50;;;;;;;6.97;100.00;100938.63;6281224;22;20013;-76
2022/11/28 05:00:13;;;;;;;6.60;5.95;;;;;;;6.96;100.00;100931.84;6280815;22;20016;-76
2022/11/28 05:02:42;;;;;;;6.57;6.03;;;;;;;6.96;100.00;100939.06;6279920;22;20020;-76
2022/11/28 05:05:15;;;;;;;6.32;5.65;;;;;;;6.98;100.00;100940.13;6280524;22;20016;-76
2022/11/28 05:07:42;;;;;;;6.97;6.15;;;;;;;6.97;100.00;100938.63;6280879;22;20446;-75
2022/11/28 05:10:11;;;;;;;9.10;6.40;;;;;;;6.97;100.00;100943.19;6280489;22;20020;-75
2022/11/28 05:12:38;;;;;;;7.35;6.43;;;;;;;6.98;100.00;100944.69;6280925;22;20484;-75
2022/11/28 05:15:05;;;;;;;7.43;6.45;;;;;;;6.97;100.00;100945.84;6280564;22;20074;-75
2022/11/28 05:17:32;;;;;;;8.65;6.28;;;;;;;6.96;100.00;100941.69;6280356;22;20017;-75
2022/11/28 05:20:05;;;;;;;6.95;6.25;;;;;;;6.98;100.00;100942.03;6280418;22;20019;-75
2022/11/28 05:22:32;;;;;;;8.73;6.10;;;;;;;6.98;100.00;100953.38;6280903;22;20020;-75
2022/11/28 05:24:58;;;;;;;7.88;5.68;;;;;;;6.97;100.00;100951.88;6280569;22;20012;-76
2022/11/28 05:27:24;;;;;;;6.97;6.38;;;;;;;6.97;100.00;100951.88;6280556;22;20019;-75
2022/11/28 05:29:52;;;;;;;7.07;6.38;;;;;;;6.97;100.00;100953.78;6280624;22;20083;-77
2022/11/28 05:32:19;;;;;;;6.90;6.20;;;;;;;6.96;100.00;100952.28;6281573;22;20122;-76
2022/11/28 05:34:45;;;;;;;8.77;6.65;;;;;;;6.98;100.00;100957.91;6281476;22;20443;-77
2022/11/28 05:37:12;;;;;;;6.53;5.97;;;;;;;6.96;100.00;100954.94;6281559;22;20078;-77
2022/11/28 05:39:38;;;;;;;7.28;6.07;;;;;;;6.96;100.00;100958.31;6280895;22;20055;-75
2022/11/28 05:42:05;;;;;;;7.00;6.22;;;;;;;6.96;100.00;100955.69;6279705;22;20027;-77
2022/11/28 05:44:31;;;;;;;6.47;5.88;;;;;;;6.96;100.00;100960.22;6279795;22;20020;-77
2022/11/28 05:46:58;;;;;;;8.30;6.20;;;;;;;6.97;100.00;100961.72;6280254;22;20016;-74
2022/11/28 05:49:25;;;;;;;6.50;5.90;;;;;;;6.97;100.00;100956.44;6280575;22;20103;-76
2022/11/28 05:51:51;;;;;;;7.28;6.03;;;;;;;6.96;100.00;100955.69;6281208;22;20139;-76
2022/11/28 05:54:18;;;;;;;7.20;6.43;;;;;;;6.97;100.00;100959.06;6281234;22;20016;-77
2022/11/28 05:56:44;;;;;;;6.50;5.90;;;;;;;6.98;100.00;100952.63;6281247;22;20476;-75
2022/11/28 05:59:12;;;;;;;7.28;6.35;;;;;;;6.98;100.00;100956.03;6280538;22;20004;-75
2022/11/28 06:01:39;;;;;;;6.13;5.57;;;;;;;6.97;100.00;100956.44;6281332;22;20094;-75
2022/11/28 06:04:05;;;;;;;7.13;6.50;;;;;;;6.99;100.00;100962.06;6281055;22;20449;-74
2022/11/28 06:06:33;;;;;;;7.82;6.13;;;;;;;6.97;100.00;100962.47;6281086;22;20066;-75
2022/11/28 06:09:00;;;;;;;6.72;6.13;;;;;;;6.99;100.00;100964.69;6280434;22;20047;-75
2022/11/28 06:11:29;;;;;;;6.38;5.80;;;;;;;7.00;100.00;100963.56;6281074;22;20461;-75
2022/11/28 06:13:56;;;;;;;6.43;5.80;;;;;;;7.00;100.00;100968.84;6280762;22;20479;-74
2022/11/28 06:16:27;;;;;;;6.80;6.20;;;;;;;7.00;100.00;100966.94;6282890;22;20054;-75
2022/11/28 06:18:56;;;;;;;9.00;6.22;;;;;;;6.99;100.00;100962.81;6282745;22;20043;-75
2022/11/28 06:21:24;;;;;;;6.65;6.10;;;;;;;7.00;100.00;100961.66;6282697;22;20024;-74
2022/11/28 06:23:51;;;;;;;7.00;6.40;;;;;;;6.99;100.00;100965.44;6282731;22;20040;-74
2022/11/28 06:26:21;;;;;;;6.72;6.15;;;;;;;7.00;100.00;100966.94;6282627;22;20031;-74
2022/11/28 06:28:48;;;;;;;7.03;6.32;;;;;;;7.00;100.00;100972.25;6281680;22;20092;-74
2022/11/28 06:31:20;;;;;;;7.88;6.13;;;;;;;7.02;100.00;100969.19;6282529;22;20016;-73
2022/11/28 06:33:47;;;;;;;9.15;6.05;;;;;;;7.03;100.00;100973.31;6282653;22;20075;-74
2022/11/28 06:36:16;;;;;;;6.80;6.10;;;;;;;7.04;100.00;100977.47;6255007;22;20017;-74
2022/11/28 06:38:42;;;;;;;7.30;6.43;;;;;;;7.05;100.00;100980.84;6282275;22;20012;-74
2022/11/28 06:41:11;;;;;;;7.30;6.43;;;;;;;7.06;100.00;100977.06;6255613;22;20370;-74
2022/11/28 06:43:38;;;;;;;7.05;6.35;;;;;;;7.07;100.00;100978.56;6281367;22;20016;-73
2022/11/28 06:46:17;;;;;;;7.43;6.38;;;;;;;7.07;100.00;100983.84;6282666;22;20032;-74
2022/11/28 06:48:45;;;;;;;6.65;5.93;;;;;;;7.07;100.00;100986.50;6282310;22;20095;-74
2022/11/28 06:51:13;;;;;;;6.53;5.97;;;;;;;7.09;100.00;100986.81;6282387;22;20028;-73
2022/11/28 06:53:39;;;;;;;7.00;6.40;;;;;;;7.09;100.00;100981.53;6282270;22;20016;-74
2022/11/28 06:56:08;;;;;;;7.57;6.88;;;;;;;7.09;100.00;100987.56;6282522;22;20036;-74
2022/11/28 06:58:35;;;;;;;7.68;6.97;;;;;;;7.10;100.00;100994.38;6281750;22;20016;-74
2022/11/28 07:01:16;;;;;;;10.95;7.25;;;;;;;7.10;100.00;101001.56;6282247;22;20087;-74
2022/11/28 07:03:43;;;;;;;8.73;7.82;;;;;;;7.11;100.00;100998.50;6255456;22;20021;-74
2022/11/28 07:06:12;;;;;;;8.48;7.53;;;;;;;7.11;100.00;101000.41;6282454;22;20032;-75
2022/11/28 07:08:39;;;;;;;8.02;7.30;;;;;;;7.08;100.00;100999.31;6282549;22;20078;-75
2022/11/28 07:11:14;;;;;;;7.72;6.93;;;;;;;7.08;100.00;100999.31;6282402;22;20059;-76
2022/11/28 07:13:42;;;;;;;7.22;6.63;;;;;;;7.08;100.00;101004.63;6282298;22;20075;-77
2022/11/28 07:16:13;;;;;;;9.13;7.03;;;;;;;7.08;100.00;100999.31;6282493;22;20032;-77
2022/11/28 07:18:40;;;;;;;8.90;7.35;;;;;;;7.09;100.00;101005.34;6282461;22;20047;-78
2022/11/28 07:21:07;;;;;;;8.38;7.28;;;;;;;7.10;100.00;101010.25;6282272;22;20016;-79
2022/11/28 07:23:34;;;;;;;7.82;7.03;;;;;;;7.11;100.00;101006.44;6282422;22;20061;-79
2022/11/28 07:26:03;;;;;;;8.35;7.57;;;;;;;7.11;100.00;101003.06;6253985;22;20021;-77
2022/11/28 07:28:30;;;;;;;7.93;6.90;;;;;;;7.11;100.00;101006.44;6254742;22;20107;-79
2022/11/28 07:31:03;;;;;;;8.57;7.28;;;;;;;7.12;100.00;101007.94;6282400;22;20020;-79
2022/11/28 07:33:30;;;;;;;8.48;7.68;;;;;;;7.13;100.00;101009.44;6282290;22;20080;-77
2022/11/28 07:36:01;;;;;;;8.63;7.75;;;;;;;7.16;100.00;101018.47;6282182;22;20453;-78
2022/11/28 07:38:28;;;;;;;;;;;;;;;7.17;100.00;101018.06;6255821;22;20012;-77
2022/11/28 07:40:54;;;;;;;9.60;6.88;;;;;;;7.17;100.00;101017.31;6281751;22;20309;-77
2022/11/28 07:43:21;;;;;;;10.73;7.55;;;;;;;7.18;100.00;101034.69;6281902;22;20051;-77
2022/11/28 07:45:47;;;;;;;9.15;8.25;;;;;;;7.19;100.00;101036.19;6282170;22;20421;-77
2022/11/28 07:48:26;;;;;;;10.70;8.20;;;;;;;7.18;100.00;101024.84;6281925;22;20048;-77
2022/11/28 07:50:53;;;;;;;9.80;8.30;;;;;;;7.18;100.00;101026.75;6281921;22;20468;-77
2022/11/28 07:53:19;;;;;;;10.63;9.10;;;;;;;7.18;100.00;101030.13;6281150;22;20017;-74
2022/11/28 07:55:46;;;;;;;10.82;9.05;;;;;;;7.20;100.00;101027.06;6281334;22;20445;-76
2022/11/28 07:58:12;;;;;;;11.43;8.98;;;;;;;7.21;100.00;101025.91;6282029;22;20500;-77
2022/11/28 08:00:39;;;;;;;9.23;8.25;;;;;;;7.21;100.00;101029.28;6282150;22;20054;-76
2022/11/28 08:03:06;;;;;;;9.75;8.45;;;;;;;7.22;100.00;101032.69;6254859;22;20062;-76
2022/11/28 08:05:32;;;;;;;10.65;9.55;;;;;;;7.21;100.00;101031.19;6281978;22;20051;-76
2022/11/28 08:07:59;;;;;;;10.82;8.65;;;;;;;7.22;100.00;101036.09;6254831;22;20016;-77
2022/11/28 08:10:26;;;;;;;13.07;9.27;;;;;;;7.22;100.00;101032.69;6281515;22;20016;-77
2022/11/28 08:12:52;;;;;;;12.63;9.73;;;;;;;7.24;100.00;101030.38;6282030;22;20019;-77
2022/11/28 08:15:19;;;;;;;12.05;9.25;;;;;;;7.23;100.00;101034.94;6282400;22;20478;-76
2022/11/28 08:17:45;;;;;;;11.95;9.23;;;;;;;7.26;100.00;101028.81;6282046;22;20024;-74
2022/11/28 08:20:12;;;;;;;13.75;9.63;;;;;;;7.27;100.00;101029.56;6281941;22;20016;-74
2022/11/28 08:22:39;;;;;;;12.30;9.45;;;;;;;7.29;100.00;101027.25;6282013;22;20017;-74
2022/11/28 08:25:06;;;;;;;12.60;10.27;;;;;;;7.29;100.00;101037.84;6281612;22;20382;-74
2022/11/28 08:27:32;;;;;;;11.73;9.52;;;;;;;7.29;100.00;101035.94;6281935;22;20055;-74
2022/11/28 08:29:59;;;;;;;12.32;9.65;;;;;;;7.30;100.00;101044.63;6282002;22;20074;-75
2022/11/28 08:32:28;;;;;;;12.23;10.13;;;;;;;7.30;100.00;101042.00;6281846;22;20091;-74
2022/11/28 08:34:54;;;;;;;11.05;9.13;;;;;;;7.31;100.00;101044.22;6281634;22;20504;-75
2022/11/28 08:37:21;;;;;;;13.07;9.25;;;;;;;7.32;100.00;101045.72;6281135;22;20104;-75
2022/11/28 08:39:47;;;;;;;13.60;9.40;;;;;;;7.34;100.00;101048.72;6254241;22;20036;-75
2022/11/28 08:42:14;;;;;;;11.00;8.90;;;;;;;7.34;100.00;101054.00;6281740;22;20044;-74
2022/11/28 08:44:40;;;;;;;12.27;9.25;;;;;;;7.35;100.00;101047.56;6282165;22;20016;-75
2022/11/28 08:47:07;;;;;;;13.23;9.10;;;;;;;7.35;100.00;101050.22;6282131;22;20016;-77
2022/11/28 08:49:36;;;;;;;12.05;9.02;;;;;;;7.37;100.00;101049.81;6281680;22;20055;-79
2022/11/28 08:52:03;;;;;;;12.35;9.63;;;;;;;7.39;100.00;101054.69;6281815;22;20500;-78
2022/11/28 08:54:29;;;;;;;10.27;9.02;;;;;;;7.40;100.00;101056.19;6253904;22;20096;-75
2022/11/28 08:56:57;;;;;;;10.73;9.18;;;;;;;7.43;100.00;101055.38;6281956;22;20084;-76
2022/11/28 08:59:24;;;;;;;11.65;8.85;;;;;;;7.46;100.00;101043.94;6281892;22;20020;-76
2022/11/28 09:01:52;;;;;;;14.30;9.68;;;;;;;7.48;100.00;101057.53;6281939;22;20012;-75
2022/11/28 09:04:19;;;;;;;12.57;9.13;;;;;;;7.48;100.00;101058.28;6281857;22;20020;-75
2022/11/28 09:06:46;;;;;;;11.23;9.02;;;;;;;7.51;100.00;101065.41;6281414;22;20075;-75
2022/11/28 09:09:12;;;;;;;10.05;8.93;;;;;;;7.55;100.00;101062.69;6280971;22;20078;-75
2022/11/28 09:11:41;;;;;;;12.57;8.88;;;;;;;7.55;100.00;101063.44;6255375;22;20020;-77
2022/11/28 09:14:08;;;;;;;12.40;8.57;;;;;;;7.57;100.00;101068.31;6281673;22;20020;-75
2022/11/28 09:16:37;;;;;;;12.45;9.10;;;;;;;7.56;100.00;101067.59;6281929;22;20016;-77
2022/11/28 09:19:05;;;;;;;12.07;9.23;;;;;;;7.55;100.00;101070.63;6281720;22;20024;-77
2022/11/28 09:21:32;;;;;;;12.57;9.95;;;;;;;7.57;100.00;101066.44;6281873;22;20118;-75
2022/11/28 09:23:58;;;;;;;13.50;10.60;;;;;;;7.59;100.00;101068.66;6281352;22;20046;-78
2022/11/28 09:26:25;;;;;;;13.95;9.65;;;;;;;7.60;100.00;101060.28;6281487;22;20032;-77
2022/11/28 09:28:52;;;;;;;14.43;10.77;;;;;;;7.61;100.00;101068.97;6281466;22;20020;-78
2022/11/28 09:31:19;;;;;;;14.30;10.55;;;;;;;7.62;100.00;101076.50;6281494;22;20074;-78
2022/11/28 09:33:47;;;;;;;13.85;10.52;;;;;;;7.64;100.00;101070.81;6281508;22;20044;-79
2022/11/28 09:36:20;;;;;;;16.33;11.25;;;;;;;7.68;100.00;101080.19;6253860;22;20016;-78
2022/11/28 09:38:47;;;;;;;18.95;10.98;;;;;;;7.67;100.00;101073.38;6281415;22;20024;-78
2022/11/28 09:41:36;;;;;;;14.30;11.02;;;;;;;7.72;100.00;101074.81;6254052;22;20020;-80
2022/11/28 09:44:29;;;;;;;16.83;11.27;;;;;;;7.75;100.00;101081.94;6253959;22;20448;-78
2022/11/28 09:46:59;;;;;;;18.40;10.43;;;;;;;7.75;100.00;101079.28;6281721;22;20091;-77
2022/11/28 09:49:39;;;;;;;13.63;10.35;;;;;;;7.78;100.00;101085.66;6282013;22;20059;-79
2022/11/28 09:52:25;;;;;;;18.10;11.27;;;;;;;7.79;100.00;101087.91;6282055;22;20453;-77
2022/11/28 09:54:58;;;;;;;16.60;11.65;;;;;;;7.80;100.00;101078.06;6282666;22;20067;-77
2022/11/28 09:57:49;;;;;;;28.90;12.35;;;;;;;7.83;100.00;101079.88;6282784;22;20019;-77
2022/11/28 10:00:33;;;;;;;21.55;12.95;;;;;;;7.84;100.00;101079.47;6282917;22;20465;-77
2022/11/28 10:03:24;;;;;;;21.45;13.15;;;;;;;7.85;100.00;101078.31;6282606;22;20083;-77
2022/11/28 10:06:01;;;;;;;25.15;13.32;;;;;;;7.87;100.00;101078.66;6282065;22;20083;-78
2022/11/28 10:08:49;;;;;;;23.45;14.23;;;;;;;7.87;100.00;101083.22;6282768;22;20016;-80
2022/11/28 10:11:50;;;;;;;27.30;14.40;;;;;;;7.90;100.00;101082.38;6282522;22;20020;-78
2022/11/28 10:14:35;;;;;;;31.20;14.65;;;;;;;7.93;100.00;101084.22;6282534;22;20512;-79
2022/11/28 10:17:14;;;;;;;33.53;15.00;;;;;;;7.98;100.00;101086.38;6282668;22;20087;-78
2022/11/28 10:19:55;;;;;;;29.95;14.13;;;;;;;8.00;100.00;101089.34;6255246;22;20024;-78
2022/11/28 10:22:33;;;;;;;30.20;15.32;;;;;;;7.99;100.00;101090.53;6282536;22;20020;-78
2022/11/28 10:25:06;;;;;;;30.50;16.23;;;;;;;8.00;100.00;101090.09;6255612;22;20016;-79
2022/11/28 10:27:34;;;;;;;39.10;16.67;;;;;;;8.02;100.00;101087.78;6282375;22;20013;-80
2022/11/28 10:30:06;;;;;;;33.83;16.38;;;;;;;8.04;100.00;101090.00;6254939;22;20024;-78
2022/11/28 10:32:43;;;;;;;30.10;16.17;;;;;;;8.05;100.00;101086.19;6282531;22;20417;-77
2022/11/28 10:35:19;;;;;;;38.63;16.73;;;;;;;8.06;100.00;101084.28;6282036;22;20059;-77
2022/11/28 10:37:53;;;;;;;30.10;16.27;;;;;;;8.09;100.00;101086.88;6282672;22;20580;-79
2022/11/28 10:40:23;;;;;;;36.53;18.35;;;;;;;8.13;100.00;101084.88;6282461;22;20012;-80
2022/11/28 10:43:11;;;;;;;38.60;18.38;;;;;;;8.17;100.00;101082.16;6282260;22;20024;-78
2022/11/28 10:46:15;;;;;;;38.65;17.15;;;;;;;8.20;100.00;101078.69;6282649;22;20098;-78
2022/11/28 10:48:57;;;;;;;40.88;17.63;;;;;;;8.22;100.00;101086.97;6282204;22;20091;-78
2022/11/28 10:52:01;;;;;;;41.95;18.05;;;;;;;8.24;100.00;101088.03;6282532;22;20082;-78
2022/11/28 10:55:06;;;;;;;35.75;18.45;;;;;;;8.27;100.00;101091.78;6282457;22;20020;-79
2022/11/28 10:57:46;;;;;;;37.92;18.13;;;;;;;8.30;100.00;101089.03;6282437;22;20070;-76
2022/11/28 11:00:18;;;;;;;37.22;18.27;;;;;;;8.32;100.00;101089.41;6281956;22;20012;-79
2022/11/28 11:02:47;;;;;;;41.55;19.20;;;;;;;8.35;100.00;101087.84;6282269;22;20393;-77
2022/11/28 11:05:20;;;;;;;40.88;19.85;;;;;;;8.41;100.00;101080.84;6281498;22;20017;-81
2022/11/28 11:07:52;;;;;;;46.10;19.83;;;;;;;8.44;100.00;101081.91;6282675;22;20404;-78
2022/11/28 11:10:28;;;;;;;40.35;18.55;;;;;;;8.46;100.00;101079.59;6282426;22;20020;-79
2022/11/28 11:12:54;;;;;;;37.70;18.52;;;;;;;8.45;100.00;101078.09;6282274;22;20446;-78
2022/11/28 11:15:28;;;;;;;40.60;18.58;;;;;;;8.47;100.00;101087.16;6282404;22;20048;-77
2022/11/28 11:17:56;;;;;;;42.30;19.10;;;;;;;8.50;100.00;101088.22;6281967;22;20075;-78
2022/11/28 11:20:39;;;;;;;40.90;18.52;;;;;;;8.54;100.00;101086.97;6282510;22;20016;-79
2022/11/28 11:23:14;;;;;;;36.75;19.30;;;;;;;8.57;100.00;101096.00;6282433;22;20398;-79
2022/11/28 11:25:48;;;;;;;36.70;18.85;;;;;;;8.58;100.00;101097.50;6255286;22;20023;-79
2022/11/28 11:28:46;;;;;;;37.10;19.73;;;;;;;8.59;100.00;101097.09;6282376;22;20067;-78
2022/11/28 11:31:23;;;;;;;41.13;19.02;;;;;;;8.61;100.00;101096.69;6281891;22;20020;-79
2022/11/28 11:34:03;;;;;;;40.08;19.13;;;;;;;8.64;100.00;101098.50;6281665;22;20027;-80
2022/11/28 11:36:35;;;;;;;36.75;18.20;;;;;;;8.67;100.00;101103.72;6282421;22;20047;-79
2022/11/28 11:39:14;;;;;;;41.08;19.27;;;;;;;8.68;100.00;101107.88;6254841;22;20036;-79
2022/11/28 11:42:00;;;;;;;38.35;18.73;;;;;;;8.67;100.00;101106.38;6282331;22;20413;-77
2022/11/28 11:44:32;;;;;;;35.13;19.38;;;;;;;8.69;100.00;101103.31;6282281;22;20024;-78
2022/11/28 11:47:07;;;;;;;35.38;18.08;;;;;;;8.70;100.00;101099.50;6281647;22;20016;-77